Mazeppa, Minnesota
Current Conditions -  °F | °C
As of 3:34 PM on Sunday 23 Nov 2014 (Local Time) from K9MN Reporting Station
Overcast Overcast  
Wind Chill: 47°   Ceiling: 300
Heat Index: 48°   Visibility: 0.75mi
Dew Point: 48°   Wind: 5mph
Humidity: 99%   Direction: 120°ESE
Pressure: 29.35"   Gusts: NA
Location:  44.27°N, 92.54°W
Report Text: K9MN 232134Z AUTO 12004KT 3/4SM OVC003 09/09 A2935 RMK AO1 P0002 T00910090
Loading
Personal Weather Stations






























Interactive Weather Map New forecast layout! Learn more

10-Day Weather Forecast

Advertisements
Track Severe Weather on mobile